sensor_id;sensor_type;location;lat;lon;timestamp;pressure;altitude;pressure_sealevel;temperature;humidity
76216;BME280;65010;50.190;18.930;2023-05-16T00:01:02;97767.56;;;12.67;60.55
76216;BME280;65010;50.190;18.930;2023-05-16T00:04:10;97764.72;;;12.69;60.58
76216;BME280;65010;50.190;18.930;2023-05-16T00:07:16;97762.69;;;12.71;60.32
76216;BME280;65010;50.190;18.930;2023-05-16T00:10:23;97767.53;;;12.81;59.89
76216;BME280;65010;50.190;18.930;2023-05-16T00:13:32;97768.19;;;12.90;59.28
76216;BME280;65010;50.190;18.930;2023-05-16T00:16:38;97762.28;;;12.94;59.06
76216;BME280;65010;50.190;18.930;2023-05-16T00:19:44;97765.75;;;13.01;58.78
76216;BME280;65010;50.190;18.930;2023-05-16T00:22:51;97755.19;;;13.01;59.03
76216;BME280;65010;50.190;18.930;2023-05-16T00:25:56;97770.00;;;13.02;58.77
76216;BME280;65010;50.190;18.930;2023-05-16T00:29:05;97766.94;;;12.99;58.73
76216;BME280;65010;50.190;18.930;2023-05-16T00:32:11;97767.16;;;12.97;58.88
76216;BME280;65010;50.190;18.930;2023-05-16T00:35:19;97763.94;;;12.95;58.68
76216;BME280;65010;50.190;18.930;2023-05-16T00:38:24;97768.19;;;12.90;59.05
76216;BME280;65010;50.190;18.930;2023-05-16T00:41:32;97771.41;;;12.78;59.16
76216;BME280;65010;50.190;18.930;2023-05-16T00:44:42;97768.78;;;12.72;59.75
76216;BME280;65010;50.190;18.930;2023-05-16T00:47:50;97773.41;;;12.56;60.31
76216;BME280;65010;50.190;18.930;2023-05-16T00:50:57;97764.28;;;12.52;60.13
76216;BME280;65010;50.190;18.930;2023-05-16T00:54:04;97764.47;;;12.51;60.79
76216;BME280;65010;50.190;18.930;2023-05-16T00:57:11;97755.31;;;12.40;61.23
76216;BME280;65010;50.190;18.930;2023-05-16T01:00:21;97763.22;;;12.33;61.14
76216;BME280;65010;50.190;18.930;2023-05-16T01:03:28;97762.78;;;12.29;61.27
76216;BME280;65010;50.190;18.930;2023-05-16T01:06:35;97763.41;;;12.25;61.07
76216;BME280;65010;50.190;18.930;2023-05-16T01:09:41;97769.09;;;12.35;61.26
76216;BME280;65010;50.190;18.930;2023-05-16T01:12:59;97771.31;;;12.38;60.64
76216;BME280;65010;50.190;18.930;2023-05-16T01:16:21;97758.19;;;12.45;59.97
76216;BME280;65010;50.190;18.930;2023-05-16T01:19:59;97753.31;;;12.48;59.70
76216;BME280;65010;50.190;18.930;2023-05-16T01:23:26;97756.78;;;12.49;59.52
76216;BME280;65010;50.190;18.930;2023-05-16T01:26:49;97740.97;;;12.49;59.34
76216;BME280;65010;50.190;18.930;2023-05-16T01:29:56;97752.53;;;12.55;58.88
76216;BME280;65010;50.190;18.930;2023-05-16T01:33:03;97746.84;;;12.58;58.20
76216;BME280;65010;50.190;18.930;2023-05-16T01:36:20;97747.84;;;12.57;58.25
76216;BME280;65010;50.190;18.930;2023-05-16T01:39:39;97751.53;;;12.62;58.38
76216;BME280;65010;50.190;18.930;2023-05-16T01:42:54;97756.78;;;12.56;57.61
76216;BME280;65010;50.190;18.930;2023-05-16T01:46:18;97750.91;;;12.54;57.42
76216;BME280;65010;50.190;18.930;2023-05-16T01:49:34;97743.41;;;12.57;57.46
76216;BME280;65010;50.190;18.930;2023-05-16T01:52:48;97750.50;;;12.50;57.27
76216;BME280;65010;50.190;18.930;2023-05-16T01:56:00;97749.88;;;12.48;57.36
76216;BME280;65010;50.190;18.930;2023-05-16T01:59:11;97745.41;;;12.48;57.13
76216;BME280;65010;50.190;18.930;2023-05-16T02:02:17;97752.06;;;12.44;57.27
76216;BME280;65010;50.190;18.930;2023-05-16T02:05:24;97742.16;;;12.46;57.22
76216;BME280;65010;50.190;18.930;2023-05-16T02:08:32;97740.75;;;12.51;57.18
76216;BME280;65010;50.190;18.930;2023-05-16T02:11:38;97755.75;;;12.50;57.05
76216;BME280;65010;50.190;18.930;2023-05-16T02:14:47;97752.53;;;12.48;56.85
76216;BME280;65010;50.190;18.930;2023-05-16T02:17:54;97756.00;;;12.55;57.20
76216;BME280;65010;50.190;18.930;2023-05-16T02:21:00;97762.06;;;12.56;56.90
76216;BME280;65010;50.190;18.930;2023-05-16T02:24:06;97762.25;;;12.54;57.03
76216;BME280;65010;50.190;18.930;2023-05-16T02:27:12;97767.53;;;12.54;56.89
76216;BME280;65010;50.190;18.930;2023-05-16T02:30:21;97766.13;;;12.58;56.87
76216;BME280;65010;50.190;18.930;2023-05-16T02:33:28;97770.38;;;12.59;57.25
76216;BME280;65010;50.190;18.930;2023-05-16T02:36:34;97766.13;;;12.58;57.28
76216;BME280;65010;50.190;18.930;2023-05-16T02:39:40;97772.84;;;12.67;57.12
76216;BME280;65010;50.190;18.930;2023-05-16T02:42:47;97779.72;;;12.55;57.17
76216;BME280;65010;50.190;18.930;2023-05-16T02:45:55;97782.53;;;12.60;57.28
76216;BME280;65010;50.190;18.930;2023-05-16T02:49:02;97770.78;;;12.56;57.31
76216;BME280;65010;50.190;18.930;2023-05-16T02:52:07;97764.28;;;12.52;57.22
76216;BME280;65010;50.190;18.930;2023-05-16T02:55:15;97763.28;;;12.53;57.38
76216;BME280;65010;50.190;18.930;2023-05-16T02:58:36;97765.69;;;12.55;57.20
76216;BME280;65010;50.190;18.930;2023-05-16T03:01:46;97763.66;;;12.50;57.73
76216;BME280;65010;50.190;18.930;2023-05-16T03:04:52;97764.63;;;12.42;57.78
76216;BME280;65010;50.190;18.930;2023-05-16T03:07:58;97774.56;;;12.40;57.64
76216;BME280;65010;50.190;18.930;2023-05-16T03:11:04;97769.53;;;12.45;57.29
76216;BME280;65010;50.190;18.930;2023-05-16T03:14:10;97778.22;;;12.39;57.68
76216;BME280;65010;50.190;18.930;2023-05-16T03:17:19;97779.59;;;12.28;58.04
76216;BME280;65010;50.190;18.930;2023-05-16T03:20:26;97778.59;;;12.29;57.94
76216;BME280;65010;50.190;18.930;2023-05-16T03:23:32;97782.84;;;12.24;58.23
76216;BME280;65010;50.190;18.930;2023-05-16T03:26:40;97790.31;;;12.14;58.68
76216;BME280;65010;50.190;18.930;2023-05-16T03:29:46;97794.16;;;12.11;58.73
76216;BME280;65010;50.190;18.930;2023-05-16T03:32:55;97795.38;;;12.15;58.61
76216;BME280;65010;50.190;18.930;2023-05-16T03:36:01;97802.88;;;12.18;58.71
76216;BME280;65010;50.190;18.930;2023-05-16T03:39:07;97802.06;;;12.18;58.68
76216;BME280;65010;50.190;18.930;2023-05-16T03:42:13;97800.84;;;12.14;58.65
76216;BME280;65010;50.190;18.930;2023-05-16T03:45:20;97799.00;;;12.14;58.72
76216;BME280;65010;50.190;18.930;2023-05-16T03:48:28;97799.22;;;12.13;59.04
76216;BME280;65010;50.190;18.930;2023-05-16T03:51:35;97801.03;;;12.12;58.94
76216;BME280;65010;50.190;18.930;2023-05-16T03:54:40;97802.84;;;12.12;58.88
76216;BME280;65010;50.190;18.930;2023-05-16T03:57:47;97806.72;;;12.16;59.08
76216;BME280;65010;50.190;18.930;2023-05-16T04:00:54;97802.88;;;12.18;59.03
76216;BME280;65010;50.190;18.930;2023-05-16T04:04:03;97799.25;;;12.26;58.82
76216;BME280;65010;50.190;18.930;2023-05-16T04:07:10;97797.03;;;12.29;58.99
76216;BME280;65010;50.190;18.930;2023-05-16T04:10:16;97797.28;;;12.35;58.83
76216;BME280;65010;50.190;18.930;2023-05-16T04:13:23;97804.78;;;12.38;58.82
76216;BME280;65010;50.190;18.930;2023-05-16T04:16:29;97803.63;;;12.47;58.52
76216;BME280;65010;50.190;18.930;2023-05-16T04:19:37;97807.28;;;12.59;58.40
76216;BME280;65010;50.190;18.930;2023-05-16T04:22:45;97807.91;;;12.68;58.24
76216;BME280;65010;50.190;18.930;2023-05-16T04:25:51;97815.81;;;12.75;57.98
76216;BME280;65010;50.190;18.930;2023-05-16T04:28:59;97827.41;;;12.80;57.84
76216;BME280;65010;50.190;18.930;2023-05-16T04:32:05;97830.06;;;12.87;57.71
76216;BME280;65010;50.190;18.930;2023-05-16T04:35:15;97835.94;;;12.96;57.73
76216;BME280;65010;50.190;18.930;2023-05-16T04:38:23;97842.44;;;13.06;57.32
76216;BME280;65010;50.190;18.930;2023-05-16T04:41:29;97830.06;;;13.14;57.27
76216;BME280;65010;50.190;18.930;2023-05-16T04:44:36;97846.91;;;13.26;56.89
76216;BME280;65010;50.190;18.930;2023-05-16T04:47:43;97857.28;;;13.34;56.42
76216;BME280;65010;50.190;18.930;2023-05-16T04:50:51;97861.94;;;13.39;56.59
76216;BME280;65010;50.190;18.930;2023-05-16T04:53:58;97866.19;;;13.46;56.29
76216;BME280;65010;50.190;18.930;2023-05-16T04:57:04;97857.66;;;13.58;56.24
76216;BME280;65010;50.190;18.930;2023-05-16T05:00:12;97863.78;;;13.65;55.95
76216;BME280;65010;50.190;18.930;2023-05-16T05:03:19;97862.56;;;13.67;55.99
76216;BME280;65010;50.190;18.930;2023-05-16T05:06:28;97865.19;;;13.74;55.82
76216;BME280;65010;50.190;18.930;2023-05-16T05:09:33;97883.47;;;13.76;55.74
76216;BME280;65010;50.190;18.930;2023-05-16T05:12:41;97881.63;;;13.76;55.62
76216;BME280;65010;50.190;18.930;2023-05-16T05:15:46;97873.91;;;13.81;55.51
76216;BME280;65010;50.190;18.930;2023-05-16T05:18:54;97878.56;;;13.93;55.11
76216;BME280;65010;50.190;18.930;2023-05-16T05:22:05;97875.91;;;14.06;55.00
76216;BME280;65010;50.190;18.930;2023-05-16T05:25:12;97880.34;;;14.12;54.37
76216;BME280;65010;50.190;18.930;2023-05-16T05:28:18;97880.31;;;14.19;54.77
76216;BME280;65010;50.190;18.930;2023-05-16T05:31:25;97872.00;;;14.22;54.20
76216;BME280;65010;50.190;18.930;2023-05-16T05:34:31;97857.53;;;14.24;54.10
76216;BME280;65010;50.190;18.930;2023-05-16T05:37:40;97864.63;;;14.31;53.94
76216;BME280;65010;50.190;18.930;2023-05-16T05:40:46;97866.00;;;14.40;54.06
76216;BME280;65010;50.190;18.930;2023-05-16T05:43:53;97867.78;;;14.53;53.41
76216;BME280;65010;50.190;18.930;2023-05-16T05:46:59;97859.16;;;14.64;52.80
76216;BME280;65010;50.190;18.930;2023-05-16T05:50:07;97866.47;;;14.75;53.87
76216;BME280;65010;50.190;18.930;2023-05-16T05:53:17;97863.53;;;14.90;53.21
76216;BME280;65010;50.190;18.930;2023-05-16T05:56:24;97874.25;;;15.02;52.47
76216;BME280;65010;50.190;18.930;2023-05-16T05:59:29;97874.63;;;15.05;51.87
76216;BME280;65010;50.190;18.930;2023-05-16T06:02:36;97875.00;;;15.09;52.54
76216;BME280;65010;50.190;18.930;2023-05-16T06:05:43;97888.41;;;15.14;52.02
76216;BME280;65010;50.190;18.930;2023-05-16T06:08:52;97890.56;;;15.24;52.96
76216;BME280;65010;50.190;18.930;2023-05-16T06:11:58;97886.78;;;15.38;52.49
76216;BME280;65010;50.190;18.930;2023-05-16T06:15:07;97889.56;;;15.50;52.77
76216;BME280;65010;50.190;18.930;2023-05-16T06:18:17;97877.75;;;15.53;51.66
76216;BME280;65010;50.190;18.930;2023-05-16T06:23:04;97892.94;;;16.07;54.03
76216;BME280;65010;50.190;18.930;2023-05-16T06:26:11;97884.69;;;16.34;53.94
76216;BME280;65010;50.190;18.930;2023-05-16T06:29:17;97886.72;;;16.69;55.33
76216;BME280;65010;50.190;18.930;2023-05-16T06:32:24;97884.78;;;17.06;53.35
76216;BME280;65010;50.190;18.930;2023-05-16T06:35:33;97880.69;;;17.34;53.35
76216;BME280;65010;50.190;18.930;2023-05-16T06:38:43;97880.34;;;17.54;53.39
76216;BME280;65010;50.190;18.930;2023-05-16T06:41:49;97878.31;;;17.68;50.87
76216;BME280;65010;50.190;18.930;2023-05-16T06:44:58;97886.28;;;17.68;49.51
76216;BME280;65010;50.190;18.930;2023-05-16T06:48:06;97886.38;;;17.61;50.07
76216;BME280;65010;50.190;18.930;2023-05-16T06:51:13;97882.75;;;17.56;50.78
76216;BME280;65010;50.190;18.930;2023-05-16T06:54:22;97861.75;;;17.42;51.38
76216;BME280;65010;50.190;18.930;2023-05-16T06:57:29;97875.13;;;17.59;50.87
76216;BME280;65010;50.190;18.930;2023-05-16T07:00:35;97882.56;;;17.69;52.13
76216;BME280;65010;50.190;18.930;2023-05-16T07:03:41;97859.47;;;17.70;52.11
76216;BME280;65010;50.190;18.930;2023-05-16T07:06:48;97879.78;;;18.11;47.81
76216;BME280;65010;50.190;18.930;2023-05-16T07:09:57;97881.69;;;18.39;50.61
76216;BME280;65010;50.190;18.930;2023-05-16T07:13:02;97887.72;;;18.75;48.55
76216;BME280;65010;50.190;18.930;2023-05-16T07:16:10;97888.66;;;19.15;49.09
76216;BME280;65010;50.190;18.930;2023-05-16T07:19:15;97893.69;;;19.28;45.27
76216;BME280;65010;50.190;18.930;2023-05-16T07:22:22;97892.09;;;19.61;47.55
76216;BME280;65010;50.190;18.930;2023-05-16T07:25:31;97896.69;;;19.99;47.40
76216;BME280;65010;50.190;18.930;2023-05-16T07:28:37;97896.34;;;20.35;46.06
76216;BME280;65010;50.190;18.930;2023-05-16T07:31:43;97898.44;;;20.77;46.96
76216;BME280;65010;50.190;18.930;2023-05-16T07:34:50;97903.72;;;21.21;45.96
76216;BME280;65010;50.190;18.930;2023-05-16T07:37:55;97906.13;;;21.55;45.73
76216;BME280;65010;50.190;18.930;2023-05-16T07:41:05;97910.38;;;21.83;40.85
76216;BME280;65010;50.190;18.930;2023-05-16T07:44:11;97914.91;;;21.82;39.21
76216;BME280;65010;50.190;18.930;2023-05-16T07:47:17;97925.44;;;21.99;36.96
76216;BME280;65010;50.190;18.930;2023-05-16T07:50:23;97938.28;;;22.40;42.54
76216;BME280;65010;50.190;18.930;2023-05-16T07:53:29;97946.19;;;22.77;34.73
76216;BME280;65010;50.190;18.930;2023-05-16T07:56:38;97944.44;;;23.29;38.96
76216;BME280;65010;50.190;18.930;2023-05-16T07:59:45;97956.81;;;23.97;39.72
76216;BME280;65010;50.190;18.930;2023-05-16T08:02:51;97952.66;;;24.46;38.72
76216;BME280;65010;50.190;18.930;2023-05-16T08:05:58;97950.78;;;25.06;37.88
76216;BME280;65010;50.190;18.930;2023-05-16T08:09:04;97945.09;;;25.57;34.96
76216;BME280;65010;50.190;18.930;2023-05-16T08:12:14;97945.19;;;25.82;32.19
76216;BME280;65010;50.190;18.930;2023-05-16T08:15:22;97937.31;;;26.44;33.17
76216;BME280;65010;50.190;18.930;2023-05-16T08:18:29;97942.56;;;27.35;34.17
76216;BME280;65010;50.190;18.930;2023-05-16T08:21:35;97942.47;;;28.20;31.82
76216;BME280;65010;50.190;18.930;2023-05-16T08:24:42;97957.81;;;28.93;29.71
76216;BME280;65010;50.190;18.930;2023-05-16T08:27:51;97956.84;;;29.48;27.28
76216;BME280;65010;50.190;18.930;2023-05-16T08:30:58;97956.22;;;30.28;28.98
76216;BME280;65010;50.190;18.930;2023-05-16T08:34:03;97951.75;;;30.98;25.51
76216;BME280;65010;50.190;18.930;2023-05-16T08:37:11;97949.41;;;31.05;23.25
76216;BME280;65010;50.190;18.930;2023-05-16T08:40:19;97953.97;;;30.79;25.04
76216;BME280;65010;50.190;18.930;2023-05-16T08:43:33;97953.88;;;31.01;23.57
76216;BME280;65010;50.190;18.930;2023-05-16T08:46:40;97934.16;;;30.69;24.27
76216;BME280;65010;50.190;18.930;2023-05-16T08:49:50;97922.53;;;30.78;28.45
76216;BME280;65010;50.190;18.930;2023-05-16T08:53:04;97932.44;;;30.82;27.81
76216;BME280;65010;50.190;18.930;2023-05-16T08:56:13;97929.72;;;30.82;28.88
76216;BME280;65010;50.190;18.930;2023-05-16T08:59:26;97935.28;;;30.86;27.04
76216;BME280;65010;50.190;18.930;2023-05-16T09:02:37;97940.84;;;30.54;27.14
76216;BME280;65010;50.190;18.930;2023-05-16T09:05:43;97938.47;;;30.22;27.55
76216;BME280;65010;50.190;18.930;2023-05-16T09:08:52;97947.97;;;30.02;27.77
76216;BME280;65010;50.190;18.930;2023-05-16T09:11:58;97956.69;;;29.99;28.56
76216;BME280;65010;50.190;18.930;2023-05-16T09:15:09;97946.66;;;29.99;27.38
76216;BME280;65010;50.190;18.930;2023-05-16T09:18:16;97943.13;;;30.30;25.89
76216;BME280;65010;50.190;18.930;2023-05-16T09:21:28;97940.34;;;30.52;26.36
76216;BME280;65010;50.190;18.930;2023-05-16T09:24:37;97928.44;;;30.71;25.95
76216;BME280;65010;50.190;18.930;2023-05-16T09:27:47;97929.56;;;30.96;25.79
76216;BME280;65010;50.190;18.930;2023-05-16T09:30:59;97931.81;;;31.20;25.10
76216;BME280;65010;50.190;18.930;2023-05-16T09:34:08;97935.19;;;31.52;21.82
76216;BME280;65010;50.190;18.930;2023-05-16T09:37:15;97937.38;;;31.50;25.65
76216;BME280;65010;50.190;18.930;2023-05-16T09:40:23;97938.00;;;31.82;25.08
76216;BME280;65010;50.190;18.930;2023-05-16T09:43:29;97946.06;;;32.17;23.86
76216;BME280;65010;50.190;18.930;2023-05-16T09:46:42;97940.91;;;32.24;24.35
76216;BME280;65010;50.190;18.930;2023-05-16T09:49:51;97944.16;;;32.47;25.14
76216;BME280;65010;50.190;18.930;2023-05-16T09:52:59;97943.56;;;32.71;22.34
76216;BME280;65010;50.190;18.930;2023-05-16T09:56:09;97937.72;;;32.60;23.86
76216;BME280;65010;50.190;18.930;2023-05-16T09:59:17;97927.81;;;32.56;20.84
76216;BME280;65010;50.190;18.930;2023-05-16T10:02:25;97929.63;;;32.13;22.57
76216;BME280;65010;50.190;18.930;2023-05-16T10:05:33;97930.69;;;31.65;25.67
76216;BME280;65010;50.190;18.930;2023-05-16T10:08:42;97924.66;;;31.16;20.18
76216;BME280;65010;50.190;18.930;2023-05-16T10:11:51;97914.56;;;30.24;24.79
76216;BME280;65010;50.190;18.930;2023-05-16T10:14:59;97930.03;;;30.23;25.14
76216;BME280;65010;50.190;18.930;2023-05-16T10:18:12;97927.06;;;30.02;23.71
76216;BME280;65010;50.190;18.930;2023-05-16T10:21:22;97929.31;;;30.00;25.54
76216;BME280;65010;50.190;18.930;2023-05-16T10:24:41;97912.44;;;30.52;28.14
76216;BME280;65010;50.190;18.930;2023-05-16T10:27:53;97917.91;;;30.96;26.64
76216;BME280;65010;50.190;18.930;2023-05-16T10:31:02;97908.50;;;31.37;28.68
76216;BME280;65010;50.190;18.930;2023-05-16T10:34:13;97911.53;;;31.61;26.28
76216;BME280;65010;50.190;18.930;2023-05-16T10:37:21;97916.03;;;31.31;22.23
76216;BME280;65010;50.190;18.930;2023-05-16T10:40:30;97924.44;;;30.77;24.20
76216;BME280;65010;50.190;18.930;2023-05-16T10:43:37;97926.22;;;30.33;22.41
76216;BME280;65010;50.190;18.930;2023-05-16T10:46:46;97917.53;;;29.82;22.18
76216;BME280;65010;50.190;18.930;2023-05-16T10:49:55;97922.19;;;29.37;23.41
76216;BME280;65010;50.190;18.930;2023-05-16T10:53:19;97925.03;;;28.95;24.94
76216;BME280;65010;50.190;18.930;2023-05-16T10:56:27;97915.25;;;28.71;24.57
76216;BME280;65010;50.190;18.930;2023-05-16T10:59:40;97914.38;;;28.48;26.68
76216;BME280;65010;50.190;18.930;2023-05-16T11:02:49;97916.50;;;28.24;26.20
76216;BME280;65010;50.190;18.930;2023-05-16T11:06:00;97911.97;;;28.19;26.96
76216;BME280;65010;50.190;18.930;2023-05-16T11:09:21;97918.56;;;28.13;24.56
76216;BME280;65010;50.190;18.930;2023-05-16T11:12:36;97919.66;;;28.12;23.90
76216;BME280;65010;50.190;18.930;2023-05-16T11:15:47;97901.34;;;28.09;24.39
76216;BME280;65010;50.190;18.930;2023-05-16T11:18:53;97893.66;;;27.88;25.09
76216;BME280;65010;50.190;18.930;2023-05-16T11:22:22;97896.22;;;27.80;25.70
76216;BME280;65010;50.190;18.930;2023-05-16T11:25:36;97878.03;;;27.52;24.12
76216;BME280;65010;50.190;18.930;2023-05-16T11:28:48;97887.06;;;27.29;25.74
76216;BME280;65010;50.190;18.930;2023-05-16T11:31:57;97892.56;;;27.05;25.48
76216;BME280;65010;50.190;18.930;2023-05-16T11:37:21;97891.97;;;26.89;26.88
